createdAt,value
2019-03-03T00:00:56.560Z,98872.80
2019-03-03T00:03:25.061Z,98872.53
2019-03-03T00:05:53.445Z,98869.10
2019-03-03T00:08:20.605Z,98862.77
2019-03-03T00:10:47.903Z,98863.57
2019-03-03T00:13:14.761Z,98861.17
2019-03-03T00:15:41.885Z,98861.66
2019-03-03T00:18:08.620Z,98866.69
2019-03-03T00:20:35.299Z,98868.03
2019-03-03T00:23:02.008Z,98868.27
2019-03-03T00:25:28.766Z,98860.36
2019-03-03T00:27:55.460Z,98861.41
2019-03-03T00:30:24.246Z,98859.78
2019-03-03T00:32:51.052Z,98866.41
2019-03-03T00:35:17.858Z,98863.55
2019-03-03T00:38:06.780Z,98856.94
2019-03-03T00:40:46.525Z,98881.70
2019-03-03T00:43:22.257Z,98868.01
2019-03-03T00:46:09.561Z,98865.89
2019-03-03T00:48:46.689Z,98857.22
2019-03-03T00:51:31.595Z,98851.13
2019-03-03T00:54:17.186Z,98854.05
2019-03-03T00:56:48.649Z,98857.42
2019-03-03T00:59:38.015Z,98860.64
2019-03-03T01:02:23.627Z,98894.91
2019-03-03T01:05:08.591Z,98868.25
2019-03-03T01:07:57.514Z,98857.95
2019-03-03T01:10:44.163Z,98847.11
2019-03-03T01:13:37.559Z,98864.80
2019-03-03T01:16:16.844Z,98861.62
2019-03-03T01:19:03.163Z,98858.70
2019-03-03T01:21:35.531Z,98857.41
2019-03-03T01:24:27.685Z,98851.30
2019-03-03T01:26:54.377Z,98857.64
2019-03-03T01:29:21.069Z,98855.01
2019-03-03T01:31:48.637Z,98844.19
2019-03-03T01:34:15.348Z,98842.84
2019-03-03T01:36:41.981Z,98886.89
2019-03-03T01:39:09.493Z,98836.27
2019-03-03T01:41:36.157Z,98837.05
2019-03-03T01:44:02.866Z,98828.59
2019-03-03T01:46:32.721Z,98837.03
2019-03-03T01:49:00.156Z,98814.63
2019-03-03T01:51:27.252Z,98829.97
2019-03-03T01:53:54.097Z,98811.75
2019-03-03T01:56:20.788Z,98805.39
2019-03-03T01:58:47.530Z,98796.42
2019-03-03T02:01:14.215Z,98810.13
2019-03-03T02:03:41.214Z,98792.45
2019-03-03T02:06:08.401Z,98795.34
2019-03-03T02:08:35.156Z,98815.38
2019-03-03T02:11:01.891Z,98795.34
2019-03-03T02:13:28.636Z,98798.52
2019-03-03T02:15:55.329Z,98795.34
2019-03-03T02:18:22.112Z,98793.25
2019-03-03T02:20:50.402Z,98786.64
2019-03-03T02:23:17.203Z,98792.70
2019-03-03T02:25:43.921Z,98776.06
2019-03-03T02:28:10.625Z,98775.28
2019-03-03T02:30:37.326Z,98789.50
2019-03-03T02:33:03.995Z,98783.45
2019-03-03T02:35:30.726Z,98780.99
2019-03-03T02:37:57.400Z,98779.17
2019-03-03T02:40:24.116Z,98775.56
2019-03-03T02:42:50.778Z,98778.89
2019-03-03T02:45:17.756Z,98775.42
2019-03-03T02:47:44.486Z,98765.70
2019-03-03T02:50:11.450Z,98763.14
2019-03-03T02:52:38.296Z,98763.06
2019-03-03T02:55:06.555Z,98754.46
2019-03-03T02:57:33.240Z,98751.28
2019-03-03T02:59:59.999Z,98751.53
2019-03-03T03:02:43.172Z,98784.24
2019-03-03T03:05:10.061Z,98734.88
2019-03-03T03:07:44.854Z,98753.87
2019-03-03T03:10:17.445Z,98746.80
2019-03-03T03:12:52.789Z,98787.31
2019-03-03T03:15:51.018Z,98738.26
2019-03-03T03:18:35.700Z,98756.23
2019-03-03T03:21:22.011Z,98758.87
2019-03-03T03:24:01.664Z,98745.69
2019-03-03T03:26:37.008Z,98752.08
2019-03-03T03:29:13.781Z,98745.47
2019-03-03T03:31:58.802Z,98741.53
2019-03-03T03:34:48.943Z,98741.30
2019-03-03T03:37:23.148Z,98757.36
2019-03-03T03:40:09.847Z,98744.16
2019-03-03T03:42:47.236Z,98758.70
2019-03-03T03:45:25.468Z,98749.97
2019-03-03T03:48:14.623Z,98758.17
2019-03-03T03:50:56.934Z,98745.52
2019-03-03T03:53:33.088Z,98751.86
2019-03-03T03:56:22.862Z,98743.14
2019-03-03T03:59:06.317Z,98755.27
2019-03-03T04:01:55.372Z,98757.16
2019-03-03T04:04:50.962Z,98738.41
2019-03-03T04:07:36.156Z,98758.95
2019-03-03T04:10:28.692Z,98746.83
2019-03-03T04:13:15.043Z,98720.59
2019-03-03T04:15:49.302Z,98754.20
2019-03-03T04:18:24.027Z,98757.11
2019-03-03T04:21:10.358Z,98752.80
2019-03-03T04:23:55.728Z,98745.22
2019-03-03T04:26:29.115Z,98741.30
2019-03-03T04:29:03.840Z,98733.38
2019-03-03T04:31:42.059Z,98724.44
2019-03-03T04:34:26.790Z,98733.13
2019-03-03T04:37:22.205Z,98721.77
2019-03-03T04:40:07.174Z,98716.52
2019-03-03T04:43:08.306Z,98719.13
2019-03-03T04:45:57.378Z,98719.16
2019-03-03T04:48:43.718Z,98712.59
2019-03-03T04:51:32.876Z,98722.08
2019-03-03T04:54:06.685Z,98720.74
2019-03-03T04:56:51.925Z,98722.83
2019-03-03T04:59:24.419Z,98715.44
2019-03-03T05:02:04.906Z,98710.48
2019-03-03T05:04:45.868Z,98705.44
2019-03-03T05:07:30.994Z,98708.60
2019-03-03T05:10:09.784Z,98717.31
2019-03-03T05:12:53.291Z,98717.58
2019-03-03T05:15:38.653Z,98718.88
2019-03-03T05:18:25.084Z,98715.98
2019-03-03T05:20:52.104Z,98714.63
2019-03-03T05:23:18.783Z,98741.04
2019-03-03T05:25:45.865Z,98714.15
2019-03-03T05:28:13.201Z,98700.95
2019-03-03T05:30:39.910Z,98687.52
2019-03-03T05:33:06.672Z,98690.43
2019-03-03T05:35:33.380Z,98688.33
2019-03-03T05:38:00.079Z,98673.30
2019-03-03T05:40:26.766Z,98670.14
2019-03-03T05:42:53.477Z,98661.94
2019-03-03T05:45:20.312Z,98694.11
2019-03-03T05:47:47.018Z,98663.53
2019-03-03T05:50:13.715Z,98653.50
2019-03-03T05:52:42.434Z,98661.65
2019-03-03T05:55:09.129Z,98653.23
2019-03-03T05:57:35.838Z,98650.09
2019-03-03T06:00:02.719Z,98648.77
2019-03-03T06:02:29.768Z,98646.39
2019-03-03T06:04:56.462Z,98652.96
2019-03-03T06:07:23.146Z,98662.73
2019-03-03T06:09:49.845Z,98649.83
2019-03-03T06:12:19.921Z,98642.70
2019-03-03T06:14:46.994Z,98642.41
2019-03-03T06:17:13.737Z,98624.70
2019-03-03T06:19:40.449Z,98648.20
2019-03-03T06:22:07.177Z,98642.14
2019-03-03T06:24:33.852Z,98635.05
2019-03-03T06:27:00.948Z,98636.91
2019-03-03T06:29:27.979Z,98627.14
2019-03-03T06:31:54.968Z,98634.76
2019-03-03T06:34:21.695Z,98637.70
2019-03-03T06:36:48.719Z,98653.19
2019-03-03T06:39:16.651Z,98644.47
2019-03-03T06:41:43.336Z,98646.11
2019-03-03T06:44:10.011Z,98660.08
2019-03-03T06:46:36.711Z,98664.84
2019-03-03T06:49:03.426Z,98690.94
2019-03-03T06:51:30.126Z,98671.97
2019-03-03T06:53:56.824Z,98669.34
2019-03-03T06:56:23.516Z,98657.70
2019-03-03T06:58:50.233Z,98671.16
2019-03-03T07:01:17.023Z,98661.95
2019-03-03T07:03:45.613Z,98669.61
2019-03-03T07:06:12.344Z,98675.92
2019-03-03T07:08:39.048Z,98673.05
2019-03-03T07:11:05.792Z,98676.22
2019-03-03T07:13:32.595Z,98660.64
2019-03-03T07:15:59.416Z,98675.92
2019-03-03T07:18:26.118Z,98676.45
2019-03-03T07:20:54.238Z,98682.52
2019-03-03T07:23:20.942Z,98702.84
2019-03-03T07:25:47.644Z,98680.16
2019-03-03T07:28:14.757Z,98683.59
2019-03-03T07:30:41.442Z,98685.97
2019-03-03T07:33:42.943Z,98693.35
2019-03-03T07:36:09.753Z,98683.31
2019-03-03T07:38:39.332Z,98692.30
2019-03-03T07:41:06.414Z,98684.67
2019-03-03T07:43:33.104Z,98679.86
2019-03-03T07:45:59.808Z,98675.67
2019-03-03T07:48:26.500Z,98686.23
2019-03-03T07:50:53.241Z,98684.64
2019-03-03T07:53:19.980Z,98686.23
2019-03-03T07:55:46.684Z,98693.62
2019-03-03T07:58:13.390Z,98687.79
2019-03-03T08:00:40.091Z,98689.40
2019-03-03T08:03:06.892Z,98687.53
2019-03-03T08:05:33.615Z,98699.43
2019-03-03T08:08:00.331Z,98685.97
2019-03-03T08:10:27.438Z,98682.00
2019-03-03T08:12:54.173Z,98690.99
2019-03-03T08:15:21.400Z,98682.01
2019-03-03T08:17:48.401Z,98692.05
2019-03-03T08:20:15.132Z,98725.83
2019-03-03T08:22:41.830Z,98699.16
2019-03-03T08:25:08.557Z,98714.20
2019-03-03T08:27:35.268Z,98700.22
2019-03-03T08:30:04.777Z,98701.53
2019-03-03T08:32:31.463Z,98691.27
2019-03-03T08:34:58.223Z,98706.04
2019-03-03T08:37:26.221Z,98706.56
2019-03-03T08:39:52.898Z,98714.22
2019-03-03T08:42:32.307Z,98703.67
2019-03-03T08:45:13.077Z,98703.67
2019-03-03T08:47:53.023Z,98703.14
2019-03-03T08:50:18.861Z,98697.59
2019-03-03T08:52:53.981Z,98707.12
2019-03-03T08:55:36.211Z,98696.02
2019-03-03T08:58:19.326Z,98700.23
2019-03-03T09:01:05.787Z,98698.92
2019-03-03T09:03:55.165Z,98684.16
2019-03-03T09:06:30.211Z,98684.67
2019-03-03T09:09:16.678Z,98685.45
2019-03-03T09:12:01.743Z,98691.28
2019-03-03T09:14:50.797Z,98675.43
2019-03-03T09:17:35.865Z,98680.70
2019-03-03T09:20:09.851Z,98678.33
2019-03-03T09:22:45.779Z,98673.31
2019-03-03T09:25:28.513Z,98658.80
2019-03-03T09:28:05.309Z,98674.11
2019-03-03T09:30:44.231Z,98670.13
2019-03-03T09:33:33.404Z,98663.28
2019-03-03T09:36:25.545Z,98664.84
2019-03-03T09:39:05.641Z,98676.69
2019-03-03T09:41:50.782Z,98655.52
2019-03-03T09:44:36.313Z,98665.84
2019-03-03T09:47:28.330Z,98663.16
2019-03-03T09:50:29.813Z,98679.30
2019-03-03T09:53:33.983Z,98670.33
2019-03-03T09:56:38.211Z,98661.59
2019-03-03T09:59:27.123Z,98670.55
2019-03-03T10:02:12.485Z,98671.32
2019-03-03T10:04:44.865Z,98680.57
2019-03-03T10:07:26.811Z,98667.13
2019-03-03T10:10:08.575Z,98666.09
2019-03-03T10:12:41.329Z,98670.80
2019-03-03T10:15:23.234Z,98652.30
2019-03-03T10:18:02.975Z,98676.33
2019-03-03T10:20:52.213Z,98719.92
2019-03-03T10:23:50.754Z,98653.59
2019-03-03T10:26:25.844Z,98651.76
2019-03-03T10:29:17.528Z,98650.89
2019-03-03T10:32:02.138Z,98662.24
2019-03-03T10:34:47.228Z,98632.67
2019-03-03T10:37:36.991Z,98665.13
2019-03-03T10:40:23.813Z,98644.77
2019-03-03T10:43:10.175Z,98642.86
2019-03-03T10:45:59.471Z,98633.56
2019-03-03T10:48:40.045Z,98618.97
2019-03-03T10:51:23.801Z,98615.17
2019-03-03T10:54:25.000Z,98623.41
2019-03-03T10:57:23.065Z,98623.64
2019-03-03T11:00:08.217Z,98605.60
2019-03-03T11:02:41.999Z,98603.61
2019-03-03T11:05:27.323Z,98628.12
2019-03-03T11:08:21.348Z,98606.24
2019-03-03T11:11:01.680Z,98607.23
2019-03-03T11:13:41.351Z,98608.27
2019-03-03T11:16:23.146Z,98602.14
2019-03-03T11:19:20.057Z,98608.30
2019-03-03T11:22:09.504Z,98617.52
2019-03-03T11:24:46.752Z,98625.66
2019-03-03T11:27:35.627Z,98617.53
2019-03-03T11:30:20.343Z,98617.22
2019-03-03T11:33:24.893Z,98604.13
2019-03-03T11:36:26.281Z,98614.91
2019-03-03T11:39:30.545Z,98607.18
2019-03-03T11:42:08.567Z,98596.22
2019-03-03T11:45:00.978Z,98589.59
2019-03-03T11:47:50.110Z,98594.08
2019-03-03T11:50:51.831Z,98585.41
2019-03-03T11:53:47.548Z,98578.11
2019-03-03T11:56:20.352Z,98565.52
2019-03-03T11:59:05.740Z,98570.39
2019-03-03T12:01:49.249Z,98577.95
2019-03-03T12:04:34.131Z,98573.14
2019-03-03T12:07:09.135Z,98564.98
2019-03-03T12:09:51.051Z,98572.17
2019-03-03T12:12:36.639Z,98573.56
2019-03-03T12:15:22.155Z,98568.51
2019-03-03T12:18:17.017Z,98571.24
2019-03-03T12:20:51.520Z,98563.23
2019-03-03T12:23:38.181Z,98567.47
2019-03-03T12:26:24.823Z,98571.78
2019-03-03T12:29:11.689Z,98551.77
2019-03-03T12:32:07.683Z,98563.91
2019-03-03T12:34:49.123Z,98549.56
2019-03-03T12:37:53.484Z,98559.87
2019-03-03T12:40:34.983Z,98562.16
2019-03-03T12:43:21.349Z,98568.91
2019-03-03T12:46:06.093Z,98557.03
2019-03-03T12:48:55.381Z,98548.59
2019-03-03T12:51:31.881Z,98550.68
2019-03-03T12:54:30.537Z,98534.84
2019-03-03T12:57:05.670Z,98529.30
2019-03-03T12:59:58.227Z,98516.95
2019-03-03T13:02:48.327Z,98517.17
2019-03-03T13:05:21.428Z,98536.77
2019-03-03T13:08:13.977Z,98507.34
2019-03-03T13:11:09.353Z,98508.88
2019-03-03T13:13:43.905Z,98503.11
2019-03-03T13:16:39.144Z,98507.55
2019-03-03T13:19:24.321Z,98502.47
2019-03-03T13:22:11.900Z,98502.97
2019-03-03T13:24:58.124Z,98490.53
2019-03-03T13:27:46.556Z,98494.81
2019-03-03T13:30:38.941Z,98490.05
2019-03-03T13:33:22.344Z,98486.20
2019-03-03T13:36:00.044Z,98481.63
2019-03-03T13:38:42.178Z,98470.06
2019-03-03T13:41:35.443Z,98472.12
2019-03-03T13:44:02.256Z,98465.77
2019-03-03T13:46:29.367Z,98463.39
2019-03-03T13:48:56.147Z,98463.68
2019-03-03T13:51:22.876Z,98458.12
2019-03-03T13:53:49.620Z,98456.27
2019-03-03T13:56:16.346Z,98445.66
2019-03-03T13:58:43.071Z,98443.73
2019-03-03T14:01:09.877Z,98444.45
2019-03-03T14:03:36.574Z,98455.94
2019-03-03T14:06:03.421Z,98449.03
2019-03-03T14:08:32.339Z,98438.99
2019-03-03T14:10:59.117Z,98431.03
2019-03-03T14:13:25.845Z,98433.97
2019-03-03T14:15:52.585Z,98429.61
2019-03-03T14:18:19.757Z,98421.42
2019-03-03T14:20:46.467Z,98418.80
2019-03-03T14:23:13.176Z,98424.34
2019-03-03T14:25:39.887Z,98418.97
2019-03-03T14:28:06.599Z,98410.39
2019-03-03T14:30:33.427Z,98404.94
2019-03-03T14:33:00.287Z,98400.41
2019-03-03T14:35:27.286Z,98443.19
2019-03-03T14:37:54.375Z,98397.20
2019-03-03T14:40:21.102Z,98395.94
2019-03-03T14:42:47.810Z,98399.88
2019-03-03T14:45:15.208Z,98394.19
2019-03-03T14:47:41.922Z,98392.22
2019-03-03T14:50:10.057Z,98391.24
2019-03-03T14:52:36.763Z,98394.27
2019-03-03T14:55:05.477Z,98374.73
2019-03-03T14:57:32.196Z,98374.55
2019-03-03T14:59:59.210Z,98368.76
2019-03-03T15:02:25.906Z,98371.55
2019-03-03T15:04:52.602Z,98370.27
2019-03-03T15:07:19.314Z,98353.53
2019-03-03T15:09:46.024Z,98358.53
2019-03-03T15:12:12.734Z,98354.00
2019-03-03T15:14:39.790Z,98359.88
2019-03-03T15:17:06.473Z,98355.50
2019-03-03T15:19:33.332Z,98344.77
2019-03-03T15:22:00.084Z,98335.00
2019-03-03T15:24:26.812Z,98325.23
2019-03-03T15:26:55.285Z,98335.14
2019-03-03T15:29:21.967Z,98331.44
2019-03-03T15:31:48.673Z,98327.03
2019-03-03T15:34:17.990Z,98317.52
2019-03-03T15:36:44.680Z,98320.00
2019-03-03T15:39:11.384Z,98303.53
2019-03-03T15:41:40.027Z,98298.41
2019-03-03T15:44:06.768Z,98289.66
2019-03-03T15:46:33.463Z,98298.02
2019-03-03T15:49:00.184Z,98286.09
2019-03-03T15:51:26.903Z,98280.97
2019-03-03T15:53:53.602Z,98264.42
2019-03-03T15:56:20.324Z,98283.69
2019-03-03T15:58:55.442Z,98272.86
2019-03-03T16:01:17.764Z,98270.61
2019-03-03T16:03:44.500Z,98262.59
2019-03-03T16:06:11.207Z,98270.70
2019-03-03T16:08:38.305Z,98260.34
2019-03-03T16:11:05.155Z,98262.44
2019-03-03T16:13:31.873Z,98265.19
2019-03-03T16:15:58.611Z,98254.95
2019-03-03T16:18:25.592Z,98266.87
2019-03-03T16:20:52.320Z,98265.38
2019-03-03T16:23:19.040Z,98260.61
2019-03-03T16:25:45.754Z,98261.34
2019-03-03T16:28:12.466Z,98276.99
2019-03-03T16:30:39.177Z,98262.17
2019-03-03T16:33:05.897Z,98270.97
2019-03-03T16:35:32.612Z,98263.63
2019-03-03T16:37:59.380Z,98254.87
2019-03-03T16:40:26.194Z,98255.91
2019-03-03T16:42:53.606Z,98257.36
2019-03-03T16:45:20.311Z,98254.11
2019-03-03T16:47:47.142Z,98258.90
2019-03-03T16:50:15.093Z,98255.59
2019-03-03T16:52:42.186Z,98253.45
2019-03-03T16:55:09.262Z,98264.98
2019-03-03T16:57:36.008Z,98265.41
2019-03-03T17:00:03.253Z,98266.53
2019-03-03T17:02:29.980Z,98254.48
2019-03-03T17:04:56.833Z,98251.34
2019-03-03T17:07:23.544Z,98250.52
2019-03-03T17:09:50.285Z,98243.87
2019-03-03T17:12:17.021Z,98255.75
2019-03-03T17:14:44.104Z,98239.37
2019-03-03T17:17:10.855Z,98223.78
2019-03-03T17:19:38.139Z,98231.46
2019-03-03T17:22:04.831Z,98221.20
2019-03-03T17:24:31.562Z,98217.92
2019-03-03T17:26:58.314Z,98213.70
2019-03-03T17:29:25.029Z,98211.51
2019-03-03T17:31:51.865Z,98201.09
2019-03-03T17:34:18.570Z,98200.79
2019-03-03T17:36:45.309Z,98194.50
2019-03-03T17:39:12.430Z,98194.94
2019-03-03T17:41:39.173Z,98188.42
2019-03-03T17:44:05.940Z,98191.33
2019-03-03T17:46:34.664Z,98179.48
2019-03-03T17:49:01.386Z,98181.61
2019-03-03T17:51:28.103Z,98177.11
2019-03-03T17:53:54.830Z,98178.63
2019-03-03T17:56:21.531Z,98173.56
2019-03-03T17:58:48.471Z,98165.83
2019-03-03T18:01:15.159Z,98165.09
2019-03-03T18:03:45.157Z,98151.38
2019-03-03T18:06:11.873Z,98146.75
2019-03-03T18:08:38.937Z,98151.21
2019-03-03T18:11:05.644Z,98156.27
2019-03-03T18:13:32.346Z,98153.98
2019-03-03T18:15:59.430Z,98147.28
2019-03-03T18:18:30.699Z,98151.02
2019-03-03T18:20:57.429Z,98150.22
2019-03-03T18:23:24.459Z,98142.31
2019-03-03T18:25:53.499Z,98146.58
2019-03-03T18:28:20.228Z,98143.11
2019-03-03T18:30:46.922Z,98135.14
2019-03-03T18:33:13.645Z,98131.37
2019-03-03T18:35:40.726Z,98130.21
2019-03-03T18:38:07.811Z,98117.31
2019-03-03T18:40:34.492Z,98105.81
2019-03-03T18:43:02.233Z,98128.92
2019-03-03T18:45:29.202Z,98116.06
2019-03-03T18:47:59.026Z,98117.81
2019-03-03T18:50:25.764Z,98110.50
2019-03-03T18:52:52.488Z,98109.03
2019-03-03T18:55:19.196Z,98107.02
2019-03-03T18:57:46.563Z,98086.72
2019-03-03T19:00:15.333Z,98098.78
2019-03-03T19:02:42.065Z,98093.50
2019-03-03T19:05:08.795Z,98084.20
2019-03-03T19:07:35.737Z,98080.86
2019-03-03T19:10:02.709Z,98084.05
2019-03-03T19:12:29.395Z,98086.35
2019-03-03T19:14:56.168Z,98078.61
2019-03-03T19:17:22.973Z,98086.81
2019-03-03T19:19:49.705Z,98070.10
2019-03-03T19:22:16.395Z,98073.80
2019-03-03T19:24:43.120Z,98073.76
2019-03-03T19:27:12.087Z,98080.03
2019-03-03T19:29:38.828Z,98075.47
2019-03-03T19:32:06.151Z,98087.41
2019-03-03T19:34:34.039Z,98068.16
2019-03-03T19:37:01.739Z,98078.78
2019-03-03T19:39:28.541Z,98092.77
2019-03-03T19:41:55.637Z,98067.34
2019-03-03T19:44:23.838Z,98070.05
2019-03-03T19:46:51.055Z,98055.43
2019-03-03T19:49:23.118Z,98054.22
2019-03-03T19:51:51.422Z,98066.88
2019-03-03T19:54:18.466Z,98067.38
2019-03-03T19:56:45.175Z,98060.30
2019-03-03T19:59:14.849Z,98056.94
2019-03-03T20:01:41.552Z,98099.95
2019-03-03T20:04:11.127Z,98069.53
2019-03-03T20:06:37.809Z,98077.01
2019-03-03T20:09:06.019Z,98061.44
2019-03-03T20:11:32.725Z,98067.02
2019-03-03T20:13:59.747Z,98056.18
2019-03-03T20:16:26.537Z,98056.86
2019-03-03T20:18:53.861Z,98055.96
2019-03-03T20:21:20.969Z,98043.56
2019-03-03T20:23:50.139Z,98028.10
2019-03-03T20:26:16.847Z,98041.41
2019-03-03T20:28:43.831Z,98031.62
2019-03-03T20:31:10.609Z,98035.89
2019-03-03T20:33:37.322Z,98012.91
2019-03-03T20:36:04.045Z,98018.42
2019-03-03T20:38:30.791Z,98007.77
2019-03-03T20:40:57.511Z,98004.67
2019-03-03T20:43:24.945Z,97998.46
2019-03-03T20:45:53.550Z,98005.61
2019-03-03T20:48:20.253Z,97992.95
2019-03-03T20:50:46.970Z,97999.14
2019-03-03T20:53:13.684Z,97989.97
2019-03-03T20:55:42.508Z,97977.91
2019-03-03T20:58:11.242Z,97968.12
2019-03-03T21:00:37.961Z,97976.05
2019-03-03T21:03:04.968Z,97970.30
2019-03-03T21:05:32.788Z,97978.50
2019-03-03T21:07:59.485Z,97961.89
2019-03-03T21:10:26.270Z,97951.61
2019-03-03T21:12:52.964Z,97946.48
2019-03-03T21:15:19.698Z,97952.97
2019-03-03T21:17:46.614Z,97951.61
2019-03-03T21:20:13.980Z,97940.40
2019-03-03T21:22:40.737Z,97943.85
2019-03-03T21:25:08.371Z,97917.11
2019-03-03T21:27:35.644Z,97917.29
2019-03-03T21:30:03.277Z,97934.19
2019-03-03T21:32:33.110Z,97706.40
2019-03-03T21:34:59.801Z,97894.16
2019-03-03T21:37:28.099Z,97925.27
2019-03-03T21:39:55.046Z,97878.16
2019-03-03T21:42:21.743Z,97867.77
2019-03-03T21:44:49.288Z,97863.64
2019-03-03T21:47:18.793Z,97861.84
2019-03-03T21:49:45.628Z,97859.63
2019-03-03T21:52:12.390Z,97857.28
2019-03-03T21:54:40.641Z,97850.25
2019-03-03T21:57:07.399Z,97856.52
2019-03-03T21:59:34.088Z,97855.23
2019-03-03T22:02:00.837Z,97850.20
2019-03-03T22:04:27.551Z,97865.66
2019-03-03T22:06:57.167Z,97833.52
2019-03-03T22:09:23.890Z,97830.22
2019-03-03T22:11:50.603Z,97818.59
2019-03-03T22:14:17.576Z,97826.38
2019-03-03T22:16:44.285Z,97818.11
2019-03-03T22:19:10.991Z,97819.15
2019-03-03T22:21:40.434Z,97809.73
2019-03-03T22:24:07.216Z,97805.83
2019-03-03T22:26:33.978Z,97820.22
2019-03-03T22:29:00.688Z,97799.04
2019-03-03T22:31:27.623Z,97798.61
2019-03-03T22:33:54.369Z,97784.72
2019-03-03T22:36:21.061Z,97772.33
2019-03-03T22:38:47.792Z,97768.20
2019-03-03T22:41:14.503Z,97766.70
2019-03-03T22:43:41.370Z,97756.35
2019-03-03T22:46:08.578Z,97748.41
2019-03-03T22:48:35.614Z,97741.88
2019-03-03T22:51:02.638Z,97733.69
2019-03-03T22:53:29.380Z,97743.42
2019-03-03T22:55:56.066Z,97734.09
2019-03-03T22:58:22.769Z,97728.58
2019-03-03T23:01:17.308Z,97737.70
2019-03-03T23:04:20.800Z,97743.13
2019-03-03T23:07:18.662Z,97756.50
2019-03-03T23:10:42.803Z,97749.05
2019-03-03T23:13:50.356Z,97744.54
2019-03-03T23:17:02.163Z,97722.05
2019-03-03T23:20:10.674Z,97715.17
2019-03-03T23:23:06.436Z,97698.81
2019-03-03T23:25:58.704Z,97711.42
2019-03-03T23:28:25.688Z,97703.43
2019-03-03T23:30:56.050Z,97690.72
2019-03-03T23:33:23.087Z,97696.39
2019-03-03T23:35:49.922Z,97692.83
2019-03-03T23:38:16.613Z,97686.35
2019-03-03T23:40:43.312Z,97684.27
2019-03-03T23:43:10.035Z,97668.55
2019-03-03T23:45:36.853Z,97664.45
2019-03-03T23:48:03.692Z,97674.89
2019-03-03T23:50:30.609Z,97651.84
2019-03-03T23:52:57.365Z,97662.06
2019-03-03T23:55:24.164Z,97638.28
2019-03-03T23:57:50.896Z,97637.05
